Terminal Aerodrome Forecast
Issued by NWS Twin Cities, MN

Home | Current Version | Previous Version | Text Only | Print | Product List | Glossary Off
Versions: 1 2 3 4 5 6 7 8 9 10 11 12 13 14 15 16 17 18 19 20 21 22 23 24 25 26 27 28 29 30 31 32

000
FTUS43 KMPX 272337
TAFMSP
TAF
KMSP 272337Z 2800/2906 14012KT P6SM SCT035 BKN060
     FM280300 13010KT P6SM SCT035
     FM281000 14014KT P6SM VCSH BKN035
      TEMPO 2811/2814 4SM -TSRA BR BKN030CB
     FM281400 15015G22KT P6SM -SHRA SCT015 OVC030
     FM281700 17018G26KT P6SM VCSH OVC035
     FM290200 23014KT P6SM BKN040=

USA.gov is the U.S. government's official web portal to all federal, state and local government web resources and services.